This is the latest recevied weather packets stored in our database for station/object WC4PEM-14. If no packets are shown the sender has not sent any weather packets the latest 10 day(s).
| Time | Temp. | Humidity | Pressure | Rain* | Wind** | Luminosity | Snow |
|---|---|---|---|---|---|---|---|
| 1778206756 | 25.56° C | 63% | 1013.6 hPa | 0 mm | - | - | - |
| 1778206678 | 25.56° C | 63% | 1013.6 hPa | 0 mm | - | - | - |
| 1778206482 | 25.56° C | 62% | 1013.6 hPa | 0 mm | - | - | - |
| 1778206378 | 25.56° C | 62% | 1013.6 hPa | 0 mm | - | - | - |
| 1778206132 | 25.56° C | 60% | 1013.6 hPa | 0 mm | - | - | - |
| 1778206079 | 25.56° C | 60% | 1013.6 hPa | 0 mm | - | - | - |
| 1778205883 | 25.56° C | 59% | 1013.5 hPa | 0 mm | - | - | - |
| 1778205778 | 25.56° C | 59% | 1013.5 hPa | 0 mm | - | - | - |
| 1778205478 | 25.56° C | 58% | 1013.5 hPa | 0 mm | - | - | - |
| 1778205270 | 26.11° C | 57% | 1013.4 hPa | 0 mm | - | - | - |
| 1778205178 | 26.11° C | 57% | 1013.4 hPa | 0 mm | - | - | - |
| 1778204934 | 26.11° C | 56% | 1013.5 hPa | 0 mm | - | - | - |
| 1778204878 | 26.11° C | 56% | 1013.5 hPa | 0 mm | - | - | - |
| 1778204649 | 26.11° C | 55% | 1013.4 hPa | 0 mm | - | - | - |
| 1778204578 | 26.11° C | 55% | 1013.4 hPa | 0 mm | - | - | - |
| 1778204369 | 26.67° C | 54% | 1013.3 hPa | 0 mm | - | - | - |
| 1778204279 | 26.67° C | 54% | 1013.3 hPa | 0 mm | - | - | - |
| 1778204066 | 26.67° C | 54% | 1013.4 hPa | 0 mm | - | - | - |
| 1778203978 | 26.67° C | 54% | 1013.4 hPa | 0 mm | - | - | - |
| 1778203778 | 26.67° C | 53% | 1013.2 hPa | 0 mm | - | - | - |
| 1778203740 | 26.67° C | 53% | 1013.2 hPa | 0 mm | - | - | - |
| 1778203697 | 30° C | 36% | 1012.8 hPa | 0 mm | - | - | - |
| 1778203693 | 31.11° C | 34% | 1012.7 hPa | 0 mm | - | - | - |
| 1778203693 | 30.56° C | 36% | 1012.7 hPa | 0 mm | - | - | - |
| 1778203679 | 26.67° C | 53% | 1013.2 hPa | 0 mm | - | - | - |
* Rain latest hour (hover to see other rain measurements)
** Current wind speed in m/s (hover to see current wind gust speed)